Time;durP1;ratioP1;P1;durP2;ratioP2;P2;SDS_P1;SDS_P2;PMS_P1;PMS_P2;Temp;Humidity;BMP_temperature;BMP_pressure;BME280_temperature;BME280_humidity;BME280_pressure;Samples;Min_cycle;Max_cycle;Signal;HPM_P1;HPM_P2
2023/07/27 00:00:12;;;;;;;;;;;21.20;50.90;;;;;;5070180;28;20377;-60
2023/07/27 00:02:38;;;;;;;;;;;21.20;50.90;;;;;;5069489;28;19928;-55
2023/07/27 00:05:05;;;;;;;;;;;21.20;50.90;;;;;;5071097;28;19947;-58
2023/07/27 00:07:32;;;;;;;;;;;21.20;50.90;;;;;;5087794;28;19921;-58
2023/07/27 00:09:59;;;;;;;;;;;21.20;50.90;;;;;;5072288;28;19924;-56
2023/07/27 00:12:27;;;;;;;;;;;21.20;50.90;;;;;;5065689;28;20356;-58
2023/07/27 00:14:54;;;;;;;;;;;21.20;50.90;;;;;;5087727;28;19936;-59
2023/07/27 00:17:20;;;;;;;;;;;21.20;51.00;;;;;;5086816;28;19924;-58
2023/07/27 00:19:47;;;;;;;;;;;21.20;51.00;;;;;;5072678;28;19977;-59
2023/07/27 00:22:14;;;;;;;;;;;21.20;51.00;;;;;;5070831;28;19924;-55
2023/07/27 00:24:41;;;;;;;;;;;21.20;51.00;;;;;;5070420;28;19929;-59
2023/07/27 00:27:07;;;;;;;;;;;21.20;51.00;;;;;;5087272;28;19932;-60
2023/07/27 00:29:36;;;;;;;;;;;21.20;51.00;;;;;;5087627;28;19932;-59
2023/07/27 00:32:02;;;;;;;;;;;21.20;51.10;;;;;;5083788;28;19925;-59
2023/07/27 00:34:29;;;;;;;;;;;21.20;51.10;;;;;;5069284;28;20000;-60
2023/07/27 00:36:56;;;;;;;;;;;21.20;51.10;;;;;;5087968;28;19932;-60
2023/07/27 00:39:23;;;;;;;;;;;21.10;51.10;;;;;;5071759;28;19927;-59
2023/07/27 00:41:49;;;;;;;;;;;21.10;51.10;;;;;;5070840;28;19978;-59
2023/07/27 00:44:16;;;;;;;;;;;21.10;51.10;;;;;;5069471;28;19989;-59
2023/07/27 00:46:44;;;;;;;;;;;21.10;51.20;;;;;;5070552;28;19936;-59
2023/07/27 00:49:11;;;;;;;;;;;21.10;51.20;;;;;;5069506;28;19938;-60
2023/07/27 00:51:39;;;;;;;;;;;21.10;51.30;;;;;;5070721;28;19921;-59
2023/07/27 00:54:06;;;;;;;;;;;21.10;51.30;;;;;;5069828;28;19924;-59
2023/07/27 00:56:33;;;;;;;;;;;21.10;51.40;;;;;;5086831;28;19936;-60
2023/07/27 00:58:59;;;;;;;;;;;21.10;51.40;;;;;;5066556;28;19979;-60
2023/07/27 01:06:31;;;;;;;;;;;21.10;51.50;;;;;;5045053;28;19928;-59
2023/07/27 01:08:57;;;;;;;;;;;21.10;51.50;;;;;;5049309;28;19932;-58
2023/07/27 01:11:25;;;;;;;;;;;21.10;51.60;;;;;;5046660;28;19933;-59
2023/07/27 01:13:54;;;;;;;;;;;21.10;51.60;;;;;;5044631;28;19933;-55
2023/07/27 01:16:22;;;;;;;;;;;21.10;51.60;;;;;;5049962;28;19931;-60
2023/07/27 01:18:50;;;;;;;;;;;21.10;51.60;;;;;;5066686;28;19925;-57
2023/07/27 01:21:18;;;;;;;;;;;21.10;51.60;;;;;;5041635;28;19933;-56
2023/07/27 01:24:14;;;;;;;;;;;21.10;51.70;;;;;;5045815;28;19925;-54
2023/07/27 01:26:52;;;;;;;;;;;21.10;51.60;;;;;;5041984;28;19924;-59
2023/07/27 01:29:20;;;;;;;;;;;21.10;51.70;;;;;;5039235;28;19924;-60
2023/07/27 01:31:48;;;;;;;;;;;21.10;51.70;;;;;;5037948;28;19926;-58
2023/07/27 01:34:16;;;;;;;;;;;21.10;51.70;;;;;;5046577;28;19947;-60
2023/07/27 01:36:43;;;;;;;;;;;21.10;51.70;;;;;;5044784;28;19929;-57
2023/07/27 01:39:10;;;;;;;;;;;21.10;51.70;;;;;;5042673;28;19930;-58
2023/07/27 01:41:41;;;;;;;;;;;21.10;51.70;;;;;;5045434;28;19924;-60
2023/07/27 01:44:08;;;;;;;;;;;21.10;51.70;;;;;;5046376;28;19925;-59
2023/07/27 01:46:35;;;;;;;;;;;21.10;51.70;;;;;;5049337;28;20020;-60
2023/07/27 01:49:03;;;;;;;;;;;21.10;51.80;;;;;;5048950;28;19975;-54
2023/07/27 01:51:30;;;;;;;;;;;21.10;51.70;;;;;;5047123;28;19929;-60
2023/07/27 01:53:56;;;;;;;;;;;21.10;51.70;;;;;;5044432;28;19929;-59
2023/07/27 01:56:23;;;;;;;;;;;21.10;51.70;;;;;;5042169;28;19924;-59
2023/07/27 01:58:50;;;;;;;;;;;21.10;51.70;;;;;;5050934;28;19932;-59
2023/07/27 02:01:17;;;;;;;;;;;21.10;51.70;;;;;;5028705;28;20378;-60
2023/07/27 02:03:43;;;;;;;;;;;21.10;51.70;;;;;;5049572;28;19947;-60
2023/07/27 02:06:12;;;;;;;;;;;21.10;51.70;;;;;;5047920;28;19932;-58
2023/07/27 02:08:38;;;;;;;;;;;21.10;51.70;;;;;;5039921;28;19924;-59
2023/07/27 02:11:05;;;;;;;;;;;21.10;51.70;;;;;;5045311;28;19929;-59
2023/07/27 02:13:32;;;;;;;;;;;21.10;51.70;;;;;;5046584;28;20348;-59
2023/07/27 02:16:02;;;;;;;;;;;21.10;51.70;;;;;;5047660;28;19932;-59
2023/07/27 02:18:29;;;;;;;;;;;21.10;51.60;;;;;;5046176;28;19929;-60
2023/07/27 02:20:55;;;;;;;;;;;21.10;51.60;;;;;;5065111;28;19929;-59
2023/07/27 02:23:23;;;;;;;;;;;21.10;51.60;;;;;;5047222;28;19935;-58
2023/07/27 02:25:50;;;;;;;;;;;21.10;51.60;;;;;;5049621;28;19924;-61
2023/07/27 02:28:17;;;;;;;;;;;21.10;51.60;;;;;;5046094;28;20010;-59
2023/07/27 02:30:44;;;;;;;;;;;21.10;51.60;;;;;;5044958;28;19936;-58
2023/07/27 02:33:10;;;;;;;;;;;21.10;51.60;;;;;;5042304;28;19992;-60
2023/07/27 02:35:37;;;;;;;;;;;21.10;51.60;;;;;;5050654;28;19932;-60
2023/07/27 02:38:04;;;;;;;;;;;21.10;52.20;;;;;;5047338;28;19932;-57
2023/07/27 02:40:32;;;;;;;;;;;21.10;51.60;;;;;;5049599;28;20270;-61
2023/07/27 02:42:59;;;;;;;;;;;21.10;51.60;;;;;;5052469;28;19939;-60
2023/07/27 02:45:26;;;;;;;;;;;21.10;51.60;;;;;;5048535;28;19928;-59
2023/07/27 02:47:52;;;;;;;;;;;21.10;51.50;;;;;;5051286;28;19925;-61
2023/07/27 02:50:19;;;;;;;;;;;21.10;51.50;;;;;;5051597;28;19924;-60
2023/07/27 02:52:46;;;;;;;;;;;21.10;51.50;;;;;;5053411;28;19929;-60
2023/07/27 02:55:13;;;;;;;;;;;21.10;51.50;;;;;;5048962;28;19935;-58
2023/07/27 02:57:41;;;;;;;;;;;21.10;51.50;;;;;;5053429;28;19925;-60
2023/07/27 03:00:09;;;;;;;;;;;21.00;51.30;;;;;;5049775;28;19972;-59
2023/07/27 03:02:36;;;;;;;;;;;21.00;51.30;;;;;;5047714;28;20020;-61
2023/07/27 03:05:04;;;;;;;;;;;21.00;51.30;;;;;;5047473;28;19940;-59
2023/07/27 03:07:30;;;;;;;;;;;21.10;51.40;;;;;;5054413;28;19925;-58
2023/07/27 03:09:57;;;;;;;;;;;21.00;51.30;;;;;;5052745;28;19951;-54
2023/07/27 03:12:24;;;;;;;;;;;21.00;51.30;;;;;;5047468;28;19925;-60
2023/07/27 03:14:52;;;;;;;;;;;21.00;51.30;;;;;;5049743;28;19977;-59
2023/07/27 03:17:19;;;;;;;;;;;21.00;51.30;;;;;;5039345;28;19932;-58
2023/07/27 03:19:46;;;;;;;;;;;21.00;51.30;;;;;;5048767;28;19977;-60
2023/07/27 03:22:13;;;;;;;;;;;21.00;51.30;;;;;;5050393;28;19935;-58
2023/07/27 03:24:39;;;;;;;;;;;21.00;51.30;;;;;;5046531;28;19929;-61
2023/07/27 03:27:06;;;;;;;;;;;21.00;51.30;;;;;;5050629;28;19990;-59
2023/07/27 03:29:33;;;;;;;;;;;21.00;51.20;;;;;;5051045;28;19936;-58
2023/07/27 03:32:01;;;;;;;;;;;21.00;51.20;;;;;;5046262;28;19925;-58
2023/07/27 03:34:28;;;;;;;;;;;21.00;51.20;;;;;;5054189;28;19933;-60
2023/07/27 03:36:55;;;;;;;;;;;21.00;51.20;;;;;;5078225;28;19932;-60
2023/07/27 03:39:21;;;;;;;;;;;21.00;51.20;;;;;;5042544;28;19925;-59
2023/07/27 03:41:48;;;;;;;;;;;21.00;51.20;;;;;;5051224;28;19925;-60
2023/07/27 03:44:15;;;;;;;;;;;21.00;51.20;;;;;;5044110;28;19932;-57
2023/07/27 03:46:41;;;;;;;;;;;21.00;51.20;;;;;;5046530;28;19979;-59
2023/07/27 03:49:10;;;;;;;;;;;21.00;51.20;;;;;;5049189;28;19929;-59
2023/07/27 03:51:36;;;;;;;;;;;21.00;51.20;;;;;;5045321;28;19935;-60
2023/07/27 03:54:03;;;;;;;;;;;21.00;51.20;;;;;;5040532;28;19932;-58
2023/07/27 03:56:30;;;;;;;;;;;21.00;51.20;;;;;;5048926;28;19925;-59
2023/07/27 03:58:56;;;;;;;;;;;21.00;51.20;;;;;;5048296;28;19983;-59
2023/07/27 04:01:23;;;;;;;;;;;21.00;51.20;;;;;;5041558;28;19928;-58
2023/07/27 04:03:50;;;;;;;;;;;21.00;51.20;;;;;;5074345;28;19925;-60
2023/07/27 04:06:18;;;;;;;;;;;21.00;51.20;;;;;;5044722;28;19932;-60
2023/07/27 04:08:45;;;;;;;;;;;21.00;51.20;;;;;;5050889;28;19925;-58
2023/07/27 04:11:12;;;;;;;;;;;21.00;51.30;;;;;;5045013;28;19925;-59
2023/07/27 04:13:38;;;;;;;;;;;21.00;51.30;;;;;;5050128;28;19925;-59
2023/07/27 04:16:05;;;;;;;;;;;21.00;51.30;;;;;;5050403;28;19929;-59
2023/07/27 04:18:32;;;;;;;;;;;21.00;51.30;;;;;;5048871;28;19936;-60
2023/07/27 04:20:59;;;;;;;;;;;21.00;51.30;;;;;;5047487;28;19925;-57
2023/07/27 04:23:27;;;;;;;;;;;21.00;51.40;;;;;;5050195;28;19929;-58
2023/07/27 04:25:54;;;;;;;;;;;21.00;51.40;;;;;;5040843;28;19975;-59
2023/07/27 04:28:20;;;;;;;;;;;21.00;51.40;;;;;;5048465;28;19925;-59
2023/07/27 04:30:47;;;;;;;;;;;21.00;51.50;;;;;;5047648;28;19929;-58
2023/07/27 04:33:14;;;;;;;;;;;21.00;51.50;;;;;;5050150;28;19991;-59
2023/07/27 04:35:41;;;;;;;;;;;21.10;51.60;;;;;;5053050;28;20019;-60
2023/07/27 04:38:08;;;;;;;;;;;21.00;51.50;;;;;;5048403;28;20368;-58
2023/07/27 04:40:36;;;;;;;;;;;21.10;51.60;;;;;;5042679;28;19929;-60
2023/07/27 04:43:03;;;;;;;;;;;21.10;51.60;;;;;;5050140;28;19924;-57
2023/07/27 04:45:30;;;;;;;;;;;21.10;51.60;;;;;;5048077;28;19932;-60
2023/07/27 04:47:57;;;;;;;;;;;21.10;51.60;;;;;;5050640;28;20369;-59
2023/07/27 04:50:23;;;;;;;;;;;21.00;51.60;;;;;;5043776;28;19932;-59
2023/07/27 04:52:50;;;;;;;;;;;21.10;51.70;;;;;;5043893;28;19925;-60
2023/07/27 04:55:17;;;;;;;;;;;21.10;51.70;;;;;;5046288;28;20015;-60
2023/07/27 04:57:45;;;;;;;;;;;21.10;51.70;;;;;;5043840;28;19935;-59
2023/07/27 05:00:12;;;;;;;;;;;21.10;51.70;;;;;;5049115;28;20035;-60
2023/07/27 05:02:39;;;;;;;;;;;21.00;51.70;;;;;;5050182;28;19925;-60
2023/07/27 05:05:06;;;;;;;;;;;21.10;51.70;;;;;;5047786;28;19928;-55
2023/07/27 05:07:33;;;;;;;;;;;21.10;51.70;;;;;;5050037;28;19978;-59
2023/07/27 05:10:00;;;;;;;;;;;21.10;51.70;;;;;;5043322;28;19925;-59
2023/07/27 05:12:28;;;;;;;;;;;21.10;51.80;;;;;;5048565;28;19978;-59
2023/07/27 05:14:56;;;;;;;;;;;21.10;51.80;;;;;;5040879;28;19935;-59
2023/07/27 05:17:23;;;;;;;;;;;21.10;51.80;;;;;;5049198;28;19925;-59
2023/07/27 05:19:49;;;;;;;;;;;21.10;51.80;;;;;;5049298;28;19925;-60
2023/07/27 05:22:16;;;;;;;;;;;21.10;51.90;;;;;;5046687;28;19925;-60
2023/07/27 05:24:43;;;;;;;;;;;21.10;51.90;;;;;;5048378;28;19928;-61
2023/07/27 05:27:10;;;;;;;;;;;21.10;51.90;;;;;;5042168;28;19932;-59
2023/07/27 05:29:36;;;;;;;;;;;21.10;51.90;;;;;;5046897;28;19925;-61
2023/07/27 05:32:05;;;;;;;;;;;21.10;51.90;;;;;;5040825;28;19925;-60
2023/07/27 05:34:34;;;;;;;;;;;21.10;51.90;;;;;;5037313;28;19932;-59
2023/07/27 05:37:01;;;;;;;;;;;21.10;51.90;;;;;;5044345;28;19972;-60
2023/07/27 05:39:29;;;;;;;;;;;21.10;51.90;;;;;;5047554;28;20224;-60
2023/07/27 05:41:55;;;;;;;;;;;21.10;51.90;;;;;;5048485;28;19928;-60
2023/07/27 05:44:22;;;;;;;;;;;21.00;51.80;;;;;;5044990;28;19925;-60
2023/07/27 05:46:50;;;;;;;;;;;21.10;52.00;;;;;;5034286;28;19947;-60
2023/07/27 05:49:18;;;;;;;;;;;21.10;51.90;;;;;;5038501;28;19932;-57
2023/07/27 05:51:45;;;;;;;;;;;21.10;52.00;;;;;;5046563;28;19925;-60
2023/07/27 05:54:12;;;;;;;;;;;21.10;52.00;;;;;;5039765;28;19929;-59
2023/07/27 05:56:40;;;;;;;;;;;21.10;52.00;;;;;;5048936;28;19932;-59
2023/07/27 05:59:07;;;;;;;;;;;21.10;52.00;;;;;;5049199;28;19925;-56
2023/07/27 06:01:34;;;;;;;;;;;21.10;52.00;;;;;;5034760;28;20451;-59
2023/07/27 06:04:02;;;;;;;;;;;21.10;52.10;;;;;;5040143;28;20026;-59
2023/07/27 06:06:30;;;;;;;;;;;21.10;52.10;;;;;;5039596;28;19933;-60
2023/07/27 06:08:57;;;;;;;;;;;21.10;52.10;;;;;;5035304;28;20028;-58
2023/07/27 06:11:24;;;;;;;;;;;21.10;52.10;;;;;;5045162;28;19948;-60
2023/07/27 06:13:51;;;;;;;;;;;21.10;52.10;;;;;;5029686;28;19929;-59
2023/07/27 06:16:17;;;;;;;;;;;21.10;52.10;;;;;;5038454;28;20034;-59
2023/07/27 06:18:44;;;;;;;;;;;21.10;52.20;;;;;;5035306;28;20004;-60
2023/07/27 06:21:11;;;;;;;;;;;21.10;52.20;;;;;;5044504;28;19925;-59
2023/07/27 06:23:39;;;;;;;;;;;21.10;52.20;;;;;;5053568;28;19925;-59
2023/07/27 06:26:06;;;;;;;;;;;21.10;52.20;;;;;;5065168;28;20405;-58
2023/07/27 06:28:35;;;;;;;;;;;21.20;52.30;;;;;;5053629;28;19988;-59
2023/07/27 06:31:02;;;;;;;;;;;21.10;52.20;;;;;;5042064;28;20027;-58
2023/07/27 06:33:29;;;;;;;;;;;21.20;52.30;;;;;;5053944;28;19979;-58
2023/07/27 06:35:56;;;;;;;;;;;21.20;52.30;;;;;;5039097;28;19932;-59
2023/07/27 06:38:23;;;;;;;;;;;21.20;52.30;;;;;;5044547;28;19925;-59
2023/07/27 06:40:51;;;;;;;;;;;21.20;52.30;;;;;;5044266;28;19929;-60
2023/07/27 06:43:18;;;;;;;;;;;21.20;52.40;;;;;;5050370;28;19940;-58
2023/07/27 06:45:45;;;;;;;;;;;21.20;52.40;;;;;;5042550;28;20109;-60
2023/07/27 06:48:11;;;;;;;;;;;21.20;52.40;;;;;;5051779;28;19936;-59
2023/07/27 06:50:38;;;;;;;;;;;21.20;52.40;;;;;;5045229;28;19925;-58
2023/07/27 06:53:05;;;;;;;;;;;21.20;52.40;;;;;;5052117;28;19925;-58
2023/07/27 06:55:32;;;;;;;;;;;21.20;52.40;;;;;;5049260;28;19929;-58
2023/07/27 06:58:01;;;;;;;;;;;21.20;52.40;;;;;;5041645;28;19933;-61
2023/07/27 07:00:28;;;;;;;;;;;21.20;52.50;;;;;;5039413;28;19960;-59
2023/07/27 07:02:55;;;;;;;;;;;21.20;52.50;;;;;;5046410;28;19924;-59
2023/07/27 07:05:21;;;;;;;;;;;21.20;52.50;;;;;;5055364;28;19925;-59
2023/07/27 07:07:48;;;;;;;;;;;21.20;52.50;;;;;;5051583;28;19978;-56
2023/07/27 07:10:15;;;;;;;;;;;21.20;52.50;;;;;;5051812;28;19929;-59
2023/07/27 07:12:42;;;;;;;;;;;21.20;52.50;;;;;;5041029;28;19983;-58
2023/07/27 07:15:10;;;;;;;;;;;21.20;52.50;;;;;;5047439;28;19979;-61
2023/07/27 07:17:37;;;;;;;;;;;21.20;52.50;;;;;;5048995;28;19952;-61
2023/07/27 07:20:05;;;;;;;;;;;21.30;52.50;;;;;;5068174;28;19924;-59
2023/07/27 07:22:32;;;;;;;;;;;21.30;52.50;;;;;;5049958;28;19931;-59
2023/07/27 07:24:59;;;;;;;;;;;21.20;52.40;;;;;;5043542;28;19925;-59
2023/07/27 07:27:25;;;;;;;;;;;21.30;52.50;;;;;;5050619;28;19932;-60
2023/07/27 07:29:52;;;;;;;;;;;21.30;52.50;;;;;;5041390;28;19980;-61
2023/07/27 07:32:20;;;;;;;;;;;21.30;52.50;;;;;;5051119;28;19924;-61
2023/07/27 07:34:47;;;;;;;;;;;21.30;52.50;;;;;;5035530;28;19983;-60
2023/07/27 07:37:14;;;;;;;;;;;21.30;52.50;;;;;;5037998;28;19929;-59
2023/07/27 07:39:41;;;;;;;;;;;21.30;52.50;;;;;;5040309;28;19925;-60
2023/07/27 07:42:07;;;;;;;;;;;21.30;52.50;;;;;;5059927;28;19932;-57
2023/07/27 07:44:34;;;;;;;;;;;21.30;52.50;;;;;;5040980;28;19925;-60
2023/07/27 07:47:01;;;;;;;;;;;21.30;52.50;;;;;;5044573;28;19936;-58
2023/07/27 07:49:29;;;;;;;;;;;21.30;52.50;;;;;;5051330;28;19925;-60
2023/07/27 07:51:56;;;;;;;;;;;21.30;52.50;;;;;;5065031;28;19940;-60
2023/07/27 07:54:23;;;;;;;;;;;21.30;52.50;;;;;;5028923;28;19925;-61
2023/07/27 07:56:49;;;;;;;;;;;21.30;52.40;;;;;;5046503;28;20436;-60
2023/07/27 07:59:16;;;;;;;;;;;21.30;52.40;;;;;;5043898;28;19933;-61
2023/07/27 08:01:43;;;;;;;;;;;21.30;52.50;;;;;;5049193;28;20275;-60
2023/07/27 08:04:10;;;;;;;;;;;21.40;52.50;;;;;;5046462;28;19929;-59
2023/07/27 08:06:38;;;;;;;;;;;21.40;52.60;;;;;;5045984;28;19924;-61
2023/07/27 08:09:05;;;;;;;;;;;21.40;52.60;;;;;;5065592;28;19933;-61
2023/07/27 08:11:32;;;;;;;;;;;21.40;52.60;;;;;;5049762;28;19979;-59
2023/07/27 08:14:01;;;;;;;;;;;21.40;52.60;;;;;;5046444;28;19928;-59
2023/07/27 08:16:28;;;;;;;;;;;21.40;52.60;;;;;;5041819;28;19925;-60
2023/07/27 08:18:55;;;;;;;;;;;21.40;52.60;;;;;;5047825;28;19925;-60
2023/07/27 08:21:22;;;;;;;;;;;21.40;52.60;;;;;;5044739;28;19932;-60
2023/07/27 08:23:50;;;;;;;;;;;21.40;52.60;;;;;;5043908;28;19925;-60
2023/07/27 08:26:17;;;;;;;;;;;21.40;52.60;;;;;;5040799;28;19925;-61
2023/07/27 08:28:45;;;;;;;;;;;21.40;52.60;;;;;;5040529;28;19924;-60
2023/07/27 08:31:12;;;;;;;;;;;21.40;52.70;;;;;;5043835;28;19929;-59
2023/07/27 08:33:39;;;;;;;;;;;21.50;52.70;;;;;;5042599;28;19925;-59
2023/07/27 08:36:06;;;;;;;;;;;21.50;52.80;;;;;;5046473;28;19933;-57
2023/07/27 08:38:32;;;;;;;;;;;21.50;52.80;;;;;;5049462;28;20309;-59
2023/07/27 08:41:01;;;;;;;;;;;21.50;52.80;;;;;;5043648;28;19980;-58
2023/07/27 08:43:28;;;;;;;;;;;21.50;52.80;;;;;;5044980;28;19932;-58
2023/07/27 08:45:56;;;;;;;;;;;21.40;52.70;;;;;;5051083;28;19933;-58
2023/07/27 08:48:24;;;;;;;;;;;21.50;52.80;;;;;;5045670;28;19937;-59
2023/07/27 08:50:50;;;;;;;;;;;21.50;52.80;;;;;;5048909;28;19932;-59
2023/07/27 08:53:17;;;;;;;;;;;21.50;53.50;;;;;;5042367;28;19925;-58
2023/07/27 08:55:44;;;;;;;;;;;21.50;52.80;;;;;;5066007;28;19929;-60
2023/07/27 08:58:12;;;;;;;;;;;21.50;52.90;;;;;;5037889;28;19925;-57
2023/07/27 09:00:39;;;;;;;;;;;21.50;52.90;;;;;;5048334;28;19996;-60
2023/07/27 09:03:07;;;;;;;;;;;21.50;52.90;;;;;;5048911;28;19925;-59
2023/07/27 09:05:38;;;;;;;;;;;21.50;52.90;;;;;;5039438;28;19929;-59
2023/07/27 09:08:06;;;;;;;;;;;21.50;52.90;;;;;;5053988;28;19932;-57
2023/07/27 09:10:32;;;;;;;;;;;21.50;52.90;;;;;;5043939;28;20011;-55
2023/07/27 09:12:59;;;;;;;;;;;21.50;52.90;;;;;;5039190;28;19932;-59
2023/07/27 09:15:27;;;;;;;;;;;21.50;52.90;;;;;;5046818;28;19945;-59
2023/07/27 09:17:58;;;;;;;;;;;21.50;52.90;;;;;;5049635;28;19931;-57
2023/07/27 09:20:25;;;;;;;;;;;21.50;52.90;;;;;;5040009;28;20125;-56
2023/07/27 09:22:51;;;;;;;;;;;21.50;52.90;;;;;;5047507;28;19929;-61
2023/07/27 09:25:20;;;;;;;;;;;21.50;52.90;;;;;;5049568;28;20052;-58
2023/07/27 09:27:47;;;;;;;;;;;21.50;52.90;;;;;;5067360;28;19933;-58
2023/07/27 09:30:14;;;;;;;;;;;21.50;52.90;;;;;;5045678;28;19971;-59
2023/07/27 09:32:42;;;;;;;;;;;21.50;52.90;;;;;;5037024;28;19999;-58
2023/07/27 09:35:13;;;;;;;;;;;21.50;52.90;;;;;;5054755;28;19978;-58
2023/07/27 09:37:40;;;;;;;;;;;21.50;52.90;;;;;;5049432;28;19947;-58
2023/07/27 09:40:09;;;;;;;;;;;21.60;53.10;;;;;;5042795;28;19929;-57
2023/07/27 09:42:35;;;;;;;;;;;21.60;53.10;;;;;;5047369;28;20149;-57
2023/07/27 09:45:02;;;;;;;;;;;21.50;53.00;;;;;;5067492;28;19925;-57
2023/07/27 09:47:31;;;;;;;;;;;21.60;53.10;;;;;;5043614;28;20289;-55
2023/07/27 09:50:00;;;;;;;;;;;21.60;53.10;;;;;;5045632;28;19925;-55
2023/07/27 09:52:26;;;;;;;;;;;21.60;53.10;;;;;;5041308;28;19968;-58
2023/07/27 09:54:54;;;;;;;;;;;21.60;53.10;;;;;;5044721;28;19999;-59
2023/07/27 09:57:21;;;;;;;;;;;21.60;53.20;;;;;;5047833;28;19992;-58
2023/07/27 09:59:48;;;;;;;;;;;21.60;53.20;;;;;;5046793;28;19936;-58
2023/07/27 10:02:15;;;;;;;;;;;21.60;53.20;;;;;;5040466;28;19929;-59
2023/07/27 10:04:42;;;;;;;;;;;21.60;53.30;;;;;;5037543;28;19933;-60
2023/07/27 10:07:10;;;;;;;;;;;21.60;53.30;;;;;;5043725;28;19978;-59
2023/07/27 10:09:37;;;;;;;;;;;21.60;53.20;;;;;;5046055;28;19929;-60
2023/07/27 10:12:05;;;;;;;;;;;21.60;53.20;;;;;;5042935;28;19995;-59
2023/07/27 10:14:32;;;;;;;;;;;21.60;53.30;;;;;;5047179;28;19925;-58
2023/07/27 10:16:59;;;;;;;;;;;21.70;53.40;;;;;;5045616;28;19929;-59
2023/07/27 10:19:26;;;;;;;;;;;21.70;53.40;;;;;;5041781;28;19972;-59
2023/07/27 10:21:53;;;;;;;;;;;21.70;53.40;;;;;;5046082;28;19925;-60
2023/07/27 10:24:23;;;;;;;;;;;21.70;53.50;;;;;;5043874;28;20317;-57
2023/07/27 10:26:51;;;;;;;;;;;21.70;53.50;;;;;;5037976;28;19939;-59
2023/07/27 10:29:18;;;;;;;;;;;21.60;53.50;;;;;;5044885;28;19925;-58
2023/07/27 10:31:45;;;;;;;;;;;21.70;53.60;;;;;;5047841;28;19986;-59
2023/07/27 10:34:16;;;;;;;;;;;21.70;53.60;;;;;;5048879;28;19932;-58
2023/07/27 10:36:49;;;;;;;;;;;21.70;53.60;;;;;;5041249;28;19933;-60
2023/07/27 10:39:16;;;;;;;;;;;21.70;53.70;;;;;;5045230;28;19925;-60
2023/07/27 10:41:58;;;;;;;;;;;21.70;53.70;;;;;;5046793;28;19952;-58
2023/07/27 10:44:27;;;;;;;;;;;21.70;53.70;;;;;;5036403;28;19960;-59
2023/07/27 10:46:58;;;;;;;;;;;21.70;53.80;;;;;;5040140;28;19936;-57
2023/07/27 10:49:24;;;;;;;;;;;21.70;53.70;;;;;;5039057;28;19929;-60
2023/07/27 10:51:51;;;;;;;;;;;21.70;53.80;;;;;;5048232;28;20366;-58
2023/07/27 10:54:18;;;;;;;;;;;21.70;53.80;;;;;;5045496;28;19951;-60
2023/07/27 10:56:45;;;;;;;;;;;21.70;53.80;;;;;;5035064;28;20397;-60
2023/07/27 10:59:12;;;;;;;;;;;21.70;53.80;;;;;;5039907;28;19924;-59
2023/07/27 11:01:40;;;;;;;;;;;21.80;53.90;;;;;;5047309;28;19929;-59
2023/07/27 11:04:11;;;;;;;;;;;21.70;53.80;;;;;;5070720;28;19925;-59
2023/07/27 11:06:41;;;;;;;;;;;21.70;53.80;;;;;;5060292;28;20008;-58
2023/07/27 11:09:12;;;;;;;;;;;21.70;53.90;;;;;;5048253;28;19925;-58
2023/07/27 11:11:39;;;;;;;;;;;21.80;54.00;;;;;;5041644;28;20431;-58
2023/07/27 11:14:06;;;;;;;;;;;21.70;54.00;;;;;;5035773;28;19933;-58
2023/07/27 11:16:37;;;;;;;;;;;21.70;54.00;;;;;;5048900;28;19925;-58
2023/07/27 11:19:05;;;;;;;;;;;21.70;54.10;;;;;;5038702;28;19925;-58
2023/07/27 11:21:32;;;;;;;;;;;21.70;54.10;;;;;;5051651;28;19932;-56
2023/07/27 11:24:02;;;;;;;;;;;21.70;54.10;;;;;;5045345;28;19929;-57
2023/07/27 11:26:30;;;;;;;;;;;21.80;54.30;;;;;;5038715;28;19931;-59
2023/07/27 11:28:56;;;;;;;;;;;21.70;54.20;;;;;;5051992;28;19924;-53
2023/07/27 11:31:23;;;;;;;;;;;21.70;54.30;;;;;;5062671;28;19926;-58
2023/07/27 11:33:50;;;;;;;;;;;21.80;54.40;;;;;;5060595;28;20528;-59
2023/07/27 11:36:21;;;;;;;;;;;21.80;54.40;;;;;;5068514;28;19931;-56
2023/07/27 11:38:51;;;;;;;;;;;21.80;54.50;;;;;;5052010;28;19925;-55
2023/07/27 11:41:18;;;;;;;;;;;21.80;54.50;;;;;;5053329;28;19928;-55
2023/07/27 11:43:45;;;;;;;;;;;21.80;54.50;;;;;;5057700;28;19928;-57
2023/07/27 11:46:12;;;;;;;;;;;21.80;54.50;;;;;;5056021;28;19925;-58
2023/07/27 11:48:39;;;;;;;;;;;21.80;54.50;;;;;;5038971;28;19925;-57
2023/07/27 11:51:06;;;;;;;;;;;21.80;54.50;;;;;;5045687;28;19964;-58
2023/07/27 11:53:34;;;;;;;;;;;21.80;54.50;;;;;;5049185;28;19925;-57
2023/07/27 11:56:01;;;;;;;;;;;21.80;54.50;;;;;;5047317;28;19925;-58
2023/07/27 11:58:28;;;;;;;;;;;21.80;54.50;;;;;;5051543;28;19933;-58
2023/07/27 12:00:55;;;;;;;;;;;21.80;54.50;;;;;;5048170;28;19960;-56
2023/07/27 12:03:22;;;;;;;;;;;21.90;54.70;;;;;;5053741;28;19924;-57
2023/07/27 12:05:49;;;;;;;;;;;21.80;54.50;;;;;;5056225;28;19987;-57
2023/07/27 12:08:19;;;;;;;;;;;21.90;54.70;;;;;;5065059;28;19999;-58
2023/07/27 12:10:54;;;;;;;;;;;21.90;54.60;;;;;;5042257;28;19929;-59
2023/07/27 12:13:22;;;;;;;;;;;21.90;54.60;;;;;;5045380;28;19925;-56
2023/07/27 12:15:56;;;;;;;;;;;21.90;54.60;;;;;;5052790;28;19947;-56
2023/07/27 12:18:25;;;;;;;;;;;21.90;54.60;;;;;;5047742;28;19940;-59
2023/07/27 12:20:52;;;;;;;;;;;21.90;55.20;;;;;;5051000;28;19929;-59
2023/07/27 12:23:21;;;;;;;;;;;21.90;54.80;;;;;;5041564;28;19932;-59
2023/07/27 12:25:48;;;;;;;;;;;21.90;54.70;;;;;;5049758;28;19925;-60
2023/07/27 12:28:16;;;;;;;;;;;21.90;54.70;;;;;;5049163;28;19928;-57
2023/07/27 12:30:43;;;;;;;;;;;21.90;54.70;;;;;;5042266;28;19933;-59
2023/07/27 12:33:10;;;;;;;;;;;21.90;54.70;;;;;;5047857;28;19987;-59
2023/07/27 12:35:36;;;;;;;;;;;21.90;54.70;;;;;;5050365;28;19928;-57
2023/07/27 12:38:03;;;;;;;;;;;21.90;54.70;;;;;;5068923;28;20285;-58
2023/07/27 12:40:30;;;;;;;;;;;21.90;54.70;;;;;;5041517;28;19947;-59
2023/07/27 12:42:58;;;;;;;;;;;21.90;54.80;;;;;;5027291;28;20031;-56
2023/07/27 12:45:27;;;;;;;;;;;21.90;54.80;;;;;;5044988;28;19931;-59
2023/07/27 12:47:53;;;;;;;;;;;21.90;54.80;;;;;;5048453;28;19967;-59
2023/07/27 12:50:20;;;;;;;;;;;21.90;54.80;;;;;;5047263;28;19925;-59
2023/07/27 12:52:48;;;;;;;;;;;21.90;54.80;;;;;;5044027;28;19943;-59
2023/07/27 12:55:16;;;;;;;;;;;21.90;55.40;;;;;;5046186;28;19932;-59
2023/07/27 12:57:43;;;;;;;;;;;21.90;54.80;;;;;;5050428;28;19928;-59
2023/07/27 13:00:11;;;;;;;;;;;21.90;54.80;;;;;;5045069;28;19921;-59
2023/07/27 13:02:39;;;;;;;;;;;21.90;54.80;;;;;;5047751;28;19925;-57
2023/07/27 13:05:12;;;;;;;;;;;21.90;54.80;;;;;;5040863;28;19932;-57
2023/07/27 13:07:42;;;;;;;;;;;21.90;54.80;;;;;;5048511;28;19975;-58
2023/07/27 13:10:09;;;;;;;;;;;21.90;54.80;;;;;;5045014;28;19998;-58
2023/07/27 13:12:36;;;;;;;;;;;21.90;54.80;;;;;;5042319;28;19924;-59
2023/07/27 13:15:02;;;;;;;;;;;21.90;54.80;;;;;;5053171;28;20285;-59
2023/07/27 13:17:29;;;;;;;;;;;21.90;54.80;;;;;;5048683;28;19933;-59
2023/07/27 13:19:57;;;;;;;;;;;21.90;54.80;;;;;;5040471;28;19925;-59
2023/07/27 13:22:24;;;;;;;;;;;21.90;54.80;;;;;;5040564;28;19932;-58
2023/07/27 13:24:51;;;;;;;;;;;21.90;54.80;;;;;;5049069;28;19933;-58
2023/07/27 13:27:18;;;;;;;;;;;21.90;54.80;;;;;;5040991;28;19941;-57
2023/07/27 13:29:45;;;;;;;;;;;21.90;54.70;;;;;;5049412;28;19978;-58
2023/07/27 13:32:11;;;;;;;;;;;21.90;54.70;;;;;;5040880;28;20140;-58
2023/07/27 13:34:39;;;;;;;;;;;21.90;54.80;;;;;;5042878;28;20359;-59
2023/07/27 13:37:07;;;;;;;;;;;22.00;54.80;;;;;;5049297;28;19928;-58
2023/07/27 13:39:34;;;;;;;;;;;22.00;54.80;;;;;;5044949;28;19957;-59
2023/07/27 13:42:01;;;;;;;;;;;22.00;54.90;;;;;;5045474;28;20370;-58
2023/07/27 13:44:28;;;;;;;;;;;21.90;54.80;;;;;;5047129;28;19936;-58
2023/07/27 13:46:54;;;;;;;;;;;21.90;54.80;;;;;;5045166;28;19932;-59
2023/07/27 13:49:21;;;;;;;;;;;21.90;54.80;;;;;;5043432;28;19932;-58
2023/07/27 13:51:49;;;;;;;;;;;22.00;54.90;;;;;;5046537;28;19929;-56
2023/07/27 13:54:17;;;;;;;;;;;21.90;54.80;;;;;;5041517;28;19929;-59
2023/07/27 13:56:44;;;;;;;;;;;21.90;54.80;;;;;;5045231;28;19925;-58
2023/07/27 13:59:10;;;;;;;;;;;21.90;54.80;;;;;;5047339;28;19925;-59
2023/07/27 14:01:37;;;;;;;;;;;21.90;54.80;;;;;;5048713;28;19939;-59
2023/07/27 14:04:04;;;;;;;;;;;21.90;54.80;;;;;;5046307;28;19925;-58
2023/07/27 14:06:31;;;;;;;;;;;21.90;54.80;;;;;;5047940;28;19925;-59
2023/07/27 14:08:58;;;;;;;;;;;21.90;54.80;;;;;;5064708;28;19937;-57
2023/07/27 14:11:29;;;;;;;;;;;22.00;54.90;;;;;;5047593;28;19941;-58
2023/07/27 14:13:56;;;;;;;;;;;21.90;54.80;;;;;;5043480;28;19933;-58
2023/07/27 14:16:23;;;;;;;;;;;21.90;54.80;;;;;;5046088;28;20327;-58
2023/07/27 14:18:49;;;;;;;;;;;21.90;54.80;;;;;;5050190;28;19925;-59
2023/07/27 14:21:16;;;;;;;;;;;21.90;54.80;;;;;;5060753;28;19987;-58